Accueil
METAR-TAF:

METAR-TAF

Aéroports :

Station RAF de Northolt

Northolt, Angleterre

latitude: 51-33N, longitude: 000-25W, altitude: 38 m

Observation

Le bulletin a été fait il y a 1 heure et 5 minutes, à 06:50 UTC
Vent 10 kt de nord/nord-est
Température 14°C
Humidité 67%
Pression 1016 hPa
Visibilité 10 km ou plus
pas de nuages en-dessous de 1500 mètres et pas de cumulonimbus.

METAR: EGWU 220650Z 03010KT CAVOK 14/08 Q1016 NOSIG

Heure: 08:55 (07:55 UTC)

Prévision

Le bulletin a été fait il y a 3 heures et 34 minutes, à 04:21 UTC
Prévision valable du 22 à 06 UTC au 22 à 24 UTC
Vent 8 kt de nord
Visibilité 10 km ou plus
pas de nuages en-dessous de 1500 mètres et pas de cumulonimbus.

TAF: EGWU 220421Z 2206/2224 01008KT CAVOK

Observations et prévisions météorologiques de plus de 4000 aéroports (messages METAR et TAF).

Les stations disponibles sont représentées par des disques jaunes et rouges sur la carte.

Passer la souris dessus pour voir le nom de la station.

Cliquer dessus pour voir les observations et prévisions météorologiques.

Pour changer de carte: cliquez sur les boutons verts avec une croix noire pour zoomer, sur le bouton vert avec un tiret pour effectuer un zoom arrière, ou sur les flèches vertes pour les cartes adjacentes.


METAR-TAF: